Time;durP1;ratioP1;P1;durP2;ratioP2;P2;SDS_P1;SDS_P2;PMS_P1;PMS_P2;Temp;Humidity;BMP_temperature;BMP_pressure;BME280_temperature;BME280_humidity;BME280_pressure;Samples;Min_cycle;Max_cycle;Signal;HPM_P1;HPM_P2
2022/07/15 00:00:10;;;;;;;7.13;1.00;;;15.10;99.90;;;;;;5051157;28;20829;-67
2022/07/15 00:02:37;;;;;;;6.07;0.77;;;15.20;99.90;;;;;;5069239;28;20059;-68
2022/07/15 00:05:05;;;;;;;4.95;1.05;;;15.20;99.90;;;;;;5069839;28;20047;-68
2022/07/15 00:07:30;;;;;;;6.55;1.83;;;15.20;99.90;;;;;;5074952;28;20066;-68
2022/07/15 00:10:14;;;;;;;5.00;1.98;;;15.20;99.90;;;;;;5073213;28;20036;-68
2022/07/15 00:12:44;;;;;;;3.22;0.57;;;15.20;99.90;;;;;;5069153;28;20043;-68
2022/07/15 00:15:10;;;;;;;3.58;0.90;;;15.20;99.90;;;;;;5063847;28;20044;-69
2022/07/15 00:17:36;;;;;;;3.25;0.68;;;15.20;99.90;;;;;;5074806;28;20051;-68
2022/07/15 00:20:02;;;;;;;3.60;1.00;;;15.20;99.90;;;;;;5064872;28;20033;-68
2022/07/15 00:22:27;;;;;;;2.10;0.70;;;15.30;99.90;;;;;;5065953;28;20146;-68
2022/07/15 00:24:53;;;;;;;5.40;1.30;;;15.30;99.90;;;;;;5071204;28;20476;-69
2022/07/15 00:27:19;;;;;;;5.07;0.90;;;15.20;99.90;;;;;;5064157;28;20489;-68
2022/07/15 00:29:44;;;;;;;3.78;0.80;;;15.30;99.90;;;;;;5066861;28;20481;-69
2022/07/15 00:32:10;;;;;;;3.87;0.83;;;15.30;99.90;;;;;;5073802;28;20046;-68
2022/07/15 00:34:36;;;;;;;8.63;1.20;;;15.30;99.90;;;;;;5052173;28;20287;-68
2022/07/15 00:37:02;;;;;;;4.60;1.10;;;15.20;99.90;;;;;;5056569;28;20498;-68
2022/07/15 00:39:31;;;;;;;6.00;1.25;;;15.30;99.90;;;;;;5052834;28;20041;-68
2022/07/15 00:41:56;;;;;;;5.45;0.98;;;15.20;99.90;;;;;;5059832;28;20029;-68
2022/07/15 00:44:22;;;;;;;3.58;1.30;;;15.20;99.90;;;;;;5035096;28;20294;-68
2022/07/15 00:46:48;;;;;;;4.57;1.33;;;15.20;99.90;;;;;;5052604;28;20051;-69
2022/07/15 00:49:13;;;;;;;3.97;1.40;;;15.20;99.90;;;;;;5061697;28;20307;-68
2022/07/15 00:51:52;;;;;;;4.15;1.20;;;15.20;99.90;;;;;;5053016;28;20295;-68
2022/07/15 00:54:23;;;;;;;7.50;0.80;;;15.20;99.90;;;;;;5056522;28;20040;-68
2022/07/15 00:56:52;;;;;;;5.25;1.00;;;15.20;99.90;;;;;;5058670;28;20051;-68
2022/07/15 00:59:21;;;;;;;9.10;1.13;;;15.20;99.90;;;;;;5059385;28;22094;-68
2022/07/15 01:01:47;;;;;;;2.38;0.95;;;15.20;99.90;;;;;;5057066;28;20060;-69
2022/07/15 01:04:13;;;;;;;;;;;15.20;99.90;;;;;;5056423;28;20032;-68
2022/07/15 01:06:39;;;;;;;6.63;1.15;;;15.20;99.90;;;;;;5059634;28;19980;-68
2022/07/15 01:09:05;;;;;;;5.28;0.90;;;15.20;99.90;;;;;;5050005;28;20036;-68
2022/07/15 01:11:31;;;;;;;3.05;1.00;;;15.20;99.90;;;;;;5049563;28;20520;-69
2022/07/15 01:14:00;;;;;;;4.30;0.50;;;15.20;99.90;;;;;;5052589;28;20362;-69
2022/07/15 01:16:26;;;;;;;4.18;1.08;;;15.20;99.90;;;;;;5055465;28;20032;-72
2022/07/15 01:18:52;;;;;;;5.90;1.75;;;15.20;99.90;;;;;;5056778;28;20089;-68
2022/07/15 01:21:18;;;;;;;;;;;15.20;99.90;;;;;;5050951;28;20112;-68
2022/07/15 01:23:44;;;;;;;6.15;0.73;;;15.20;99.90;;;;;;5057293;28;20011;-70
2022/07/15 01:26:11;;;;;;;3.35;0.63;;;15.10;99.90;;;;;;5053585;28;20413;-68
2022/07/15 01:28:37;;;;;;;5.43;1.10;;;15.10;99.90;;;;;;5054245;28;20099;-68
2022/07/15 01:31:03;;;;;;;3.47;0.82;;;15.10;99.90;;;;;;5037596;28;20044;-69
2022/07/15 01:33:30;;;;;;;3.05;0.80;;;15.10;99.90;;;;;;5057383;28;20041;-68
2022/07/15 01:35:56;;;;;;;4.90;1.02;;;15.10;99.90;;;;;;5054822;28;20423;-68
2022/07/15 01:38:22;;;;;;;2.92;1.13;;;15.10;99.90;;;;;;5053159;28;20071;-68
2022/07/15 01:40:47;;;;;;;2.40;0.80;;;15.10;99.90;;;;;;5059835;28;20033;-68
2022/07/15 01:43:13;;;;;;;4.85;1.20;;;15.00;99.90;;;;;;5055284;28;20037;-68
2022/07/15 01:45:43;;;;;;;4.20;0.73;;;15.00;99.90;;;;;;5052409;28;20102;-69
2022/07/15 01:49:21;;;;;;;4.20;0.70;;;15.00;99.90;;;;;;5059467;28;20282;-68
2022/07/15 01:50:57;;;;;;;8.23;0.98;;;15.10;99.90;;;;;;5054792;28;20485;-68
2022/07/15 01:53:23;;;;;;;6.28;1.02;;;15.00;99.90;;;;;;5048030;28;20733;-68
2022/07/15 01:55:49;;;;;;;2.10;0.63;;;14.90;99.90;;;;;;5057801;28;20048;-68
2022/07/15 01:58:17;;;;;;;2.33;0.60;;;14.90;99.90;;;;;;5059593;28;20052;-68
2022/07/15 02:00:43;;;;;;;5.88;0.80;;;14.90;99.90;;;;;;5052422;28;20051;-68
2022/07/15 02:03:08;;;;;;;1.25;0.40;;;14.90;99.90;;;;;;5047346;28;20033;-68
2022/07/15 02:05:35;;;;;;;4.53;1.13;;;14.80;99.90;;;;;;5058410;28;20040;-68
2022/07/15 02:08:01;;;;;;;4.18;1.20;;;14.80;99.90;;;;;;5054598;28;20145;-68
2022/07/15 02:10:39;;;;;;;3.15;0.63;;;14.80;99.90;;;;;;5056912;28;20036;-68
2022/07/15 02:13:09;;;;;;;3.85;0.77;;;14.80;99.90;;;;;;5060461;28;20519;-68
2022/07/15 02:15:36;;;;;;;3.10;1.15;;;14.80;99.90;;;;;;5053364;28;20501;-68
2022/07/15 02:18:02;;;;;;;7.43;1.17;;;14.70;99.90;;;;;;5059685;28;20126;-69
2022/07/15 02:20:28;;;;;;;2.80;0.98;;;14.70;99.90;;;;;;5055861;28;20048;-68
2022/07/15 02:22:57;;;;;;;7.35;0.70;;;14.70;99.90;;;;;;5048932;28;20080;-68
2022/07/15 02:25:26;;;;;;;5.53;0.85;;;14.60;99.90;;;;;;5058503;28;20211;-68
2022/07/15 02:27:56;;;;;;;3.22;0.80;;;14.60;99.90;;;;;;5056164;28;20134;-69
2022/07/15 02:30:28;;;;;;;5.47;0.80;;;14.50;99.90;;;;;;5055055;28;20042;-68
2022/07/15 02:32:55;;;;;;;2.38;0.65;;;14.60;99.90;;;;;;5058344;28;20506;-68
2022/07/15 02:35:21;;;;;;;1.50;0.50;;;14.50;99.90;;;;;;5058143;28;20040;-68
2022/07/15 02:37:47;;;;;;;3.60;0.90;;;14.50;99.90;;;;;;5061197;28;20508;-69
2022/07/15 02:40:13;;;;;;;2.80;0.47;;;14.40;99.90;;;;;;5052224;28;20067;-68
2022/07/15 02:42:39;;;;;;;4.72;0.60;;;14.40;99.90;;;;;;5056174;28;20033;-68
2022/07/15 02:45:06;;;;;;;3.22;0.70;;;14.40;99.90;;;;;;5048405;28;20029;-68
2022/07/15 02:47:32;;;;;;;1.42;0.70;;;14.30;99.90;;;;;;5046504;28;20268;-68
2022/07/15 02:49:57;;;;;;;4.23;0.80;;;14.30;99.90;;;;;;5055355;28;20112;-68
2022/07/15 02:52:23;;;;;;;2.90;0.83;;;14.20;99.90;;;;;;5047441;28;20387;-68
2022/07/15 02:54:49;;;;;;;2.03;0.50;;;14.30;99.90;;;;;;5062135;28;20283;-69
2022/07/15 02:57:15;;;;;;;4.90;0.77;;;14.30;99.90;;;;;;5059395;28;20299;-68
2022/07/15 02:59:40;;;;;;;2.37;0.63;;;14.20;99.90;;;;;;5055942;28;20594;-68
2022/07/15 03:02:06;;;;;;;2.63;0.63;;;14.20;99.90;;;;;;5053810;28;20760;-68
2022/07/15 03:04:32;;;;;;;5.88;0.68;;;14.20;99.90;;;;;;5053492;28;20098;-68
2022/07/15 03:06:57;;;;;;;3.50;0.70;;;14.20;99.90;;;;;;5056399;28;20032;-68
2022/07/15 03:09:23;;;;;;;0.73;0.40;;;14.10;99.90;;;;;;5054441;28;20590;-68
2022/07/15 03:11:49;;;;;;;1.73;0.40;;;14.10;99.90;;;;;;5059474;28;20063;-68
2022/07/15 03:14:14;;;;;;;1.38;0.52;;;14.20;99.90;;;;;;5055256;28;20036;-69
2022/07/15 03:16:40;;;;;;;2.17;0.40;;;14.00;99.90;;;;;;5052281;28;20036;-68
2022/07/15 03:19:05;;;;;;;1.33;0.50;;;14.00;99.90;;;;;;5054254;28;20327;-68
2022/07/15 03:21:31;;;;;;;1.80;0.80;;;14.00;99.90;;;;;;5058491;28;20037;-68
2022/07/15 03:23:57;;;;;;;2.63;0.37;;;14.00;99.90;;;;;;5052232;28;20568;-68
2022/07/15 03:26:22;;;;;;;1.07;0.47;;;13.90;99.90;;;;;;5058961;28;20196;-68
2022/07/15 03:28:48;;;;;;;1.27;0.30;;;13.90;99.90;;;;;;5050222;28;20302;-68
2022/07/15 03:31:14;;;;;;;0.77;0.20;;;13.90;99.90;;;;;;5069694;28;20424;-68
2022/07/15 03:33:39;;;;;;;0.95;0.40;;;13.90;99.90;;;;;;5059553;28;20040;-68
2022/07/15 03:36:05;;;;;;;2.20;0.23;;;13.90;99.90;;;;;;5059612;28;20161;-69
2022/07/15 03:38:32;;;;;;;1.48;0.52;;;13.90;99.90;;;;;;5062545;28;20286;-68
2022/07/15 03:40:57;;;;;;;2.03;0.30;;;13.90;99.90;;;;;;5053386;28;20096;-68
2022/07/15 03:43:26;;;;;;;1.25;0.40;;;13.90;99.90;;;;;;5056527;28;20040;-68
2022/07/15 03:45:53;;;;;;;3.45;0.60;;;13.90;99.90;;;;;;5053871;28;20033;-68
2022/07/15 03:48:19;;;;;;;0.98;0.22;;;13.80;99.90;;;;;;5044934;28;20135;-68
2022/07/15 03:50:45;;;;;;;2.13;0.50;;;13.90;99.90;;;;;;5047640;28;20538;-68
2022/07/15 03:53:10;;;;;;;2.08;0.30;;;13.80;99.90;;;;;;5050020;28;20033;-68
2022/07/15 03:55:37;;;;;;;2.10;0.30;;;13.80;99.90;;;;;;5052934;28;20082;-68
2022/07/15 03:58:03;;;;;;;1.38;0.40;;;13.80;99.90;;;;;;5049310;28;20163;-69
2022/07/15 04:00:29;;;;;;;2.20;0.38;;;13.80;99.90;;;;;;5050579;28;20052;-68
2022/07/15 04:02:55;;;;;;;4.20;0.90;;;13.80;99.90;;;;;;5051169;28;20033;-68
2022/07/15 04:05:21;;;;;;;4.13;0.40;;;13.80;99.90;;;;;;5053383;28;20108;-68
2022/07/15 04:07:47;;;;;;;1.27;0.47;;;13.90;99.90;;;;;;5047440;28;20174;-68
2022/07/15 04:10:13;;;;;;;2.20;0.40;;;13.90;99.90;;;;;;5056597;28;20047;-68
2022/07/15 04:12:39;;;;;;;1.60;0.50;;;13.90;99.90;;;;;;5055216;28;20048;-68
2022/07/15 04:15:05;;;;;;;2.50;0.68;;;13.90;99.90;;;;;;5054220;28;20496;-68
2022/07/15 04:17:31;;;;;;;1.80;0.77;;;13.90;99.90;;;;;;5070132;28;20064;-68
2022/07/15 04:19:59;;;;;;;1.53;0.40;;;13.90;99.90;;;;;;5058430;28;20032;-68
2022/07/15 04:22:24;;;;;;;4.15;0.88;;;13.90;99.90;;;;;;5056720;28;20032;-68
2022/07/15 04:24:50;;;;;;;1.50;0.70;;;13.90;99.90;;;;;;5058072;28;20043;-68
2022/07/15 04:27:16;;;;;;;2.37;0.67;;;13.90;99.90;;;;;;5065808;28;20115;-68
2022/07/15 04:29:41;;;;;;;3.93;1.03;;;13.90;99.90;;;;;;5059059;28;20041;-68
2022/07/15 04:32:07;;;;;;;1.63;0.90;;;13.90;99.90;;;;;;5051019;28;20044;-68
2022/07/15 04:34:33;;;;;;;3.70;0.70;;;13.90;99.90;;;;;;5063499;28;20544;-67
2022/07/15 04:36:58;;;;;;;2.67;0.55;;;13.90;99.90;;;;;;5058923;28;20036;-68
2022/07/15 04:39:24;;;;;;;2.83;0.60;;;13.90;99.90;;;;;;5062904;28;20072;-68
2022/07/15 04:41:51;;;;;;;5.90;0.80;;;13.90;99.90;;;;;;5058098;28;20442;-68
2022/07/15 04:44:17;;;;;;;2.03;0.52;;;13.90;99.90;;;;;;5061164;28;20041;-68
2022/07/15 04:46:43;;;;;;;1.40;0.50;;;13.90;99.90;;;;;;5045337;28;20046;-69
2022/07/15 04:51:53;;;;;;;2.88;0.57;;;14.00;99.90;;;;;;5053515;28;20052;-68
2022/07/15 04:54:18;;;;;;;1.97;0.43;;;14.00;99.90;;;;;;5116074;22;20046;-72
2022/07/15 04:56:44;;;;;;;4.70;0.60;;;14.00;99.90;;;;;;5000367;28;20374;-72
2022/07/15 04:59:09;;;;;;;0.60;0.30;;;14.10;99.90;;;;;;5002725;28;20065;-72
2022/07/15 05:01:35;;;;;;;2.40;0.70;;;14.10;99.90;;;;;;4981753;28;20089;-72
2022/07/15 05:04:01;;;;;;;2.03;0.57;;;14.20;99.90;;;;;;4985032;28;20031;-72
2022/07/15 05:06:27;;;;;;;1.23;0.60;;;14.20;99.90;;;;;;4983322;28;20092;-71
2022/07/15 05:08:52;;;;;;;3.17;0.90;;;14.30;99.90;;;;;;4987155;28;20466;-71
2022/07/15 05:11:18;;;;;;;1.90;0.50;;;14.30;99.90;;;;;;4986754;28;20081;-71
2022/07/15 05:13:44;;;;;;;1.80;0.60;;;14.30;99.90;;;;;;4984808;28;20562;-71
2022/07/15 05:16:10;;;;;;;2.30;0.67;;;14.40;99.90;;;;;;4982026;28;20042;-71
2022/07/15 05:18:37;;;;;;;1.83;0.40;;;14.40;99.90;;;;;;4989993;28;20039;-71
2022/07/15 05:21:03;;;;;;;4.47;0.55;;;14.40;99.90;;;;;;4990753;28;20458;-71
2022/07/15 05:23:28;;;;;;;1.27;0.43;;;14.50;99.90;;;;;;4980810;28;20047;-72
2022/07/15 05:25:58;;;;;;;1.37;0.47;;;14.50;99.90;;;;;;4987098;28;20403;-72
2022/07/15 05:28:24;;;;;;;2.28;0.50;;;14.50;99.90;;;;;;4991520;28;20296;-71
2022/07/15 05:30:50;;;;;;;0.33;0.27;;;14.60;99.90;;;;;;4978784;28;20038;-72
2022/07/15 05:33:16;;;;;;;2.80;0.47;;;14.60;99.90;;;;;;4983461;28;20324;-72
2022/07/15 05:35:42;;;;;;;;;;;14.60;99.90;;;;;;4986437;28;20443;-71
2022/07/15 05:38:07;;;;;;;0.57;0.30;;;14.70;99.90;;;;;;4985182;28;19940;-71
2022/07/15 05:40:33;;;;;;;3.93;0.37;;;14.70;99.90;;;;;;4986347;28;20140;-71
2022/07/15 05:42:59;;;;;;;0.63;0.28;;;14.70;99.90;;;;;;4986457;28;20057;-72
2022/07/15 05:45:25;;;;;;;1.15;0.40;;;14.70;99.90;;;;;;4986479;28;20038;-72
2022/07/15 05:47:51;;;;;;;1.35;0.35;;;14.80;99.90;;;;;;4979209;28;20474;-72
2022/07/15 05:50:17;;;;;;;0.28;0.05;;;14.80;99.90;;;;;;4986511;28;20037;-71
2022/07/15 05:52:43;;;;;;;2.35;0.93;;;14.90;99.90;;;;;;4982397;28;20258;-72
2022/07/15 05:55:09;;;;;;;2.72;0.65;;;14.90;99.90;;;;;;4986202;28;20556;-72
2022/07/15 05:57:34;;;;;;;0.90;0.45;;;14.90;99.90;;;;;;4982406;28;20038;-72
2022/07/15 06:00:00;;;;;;;1.70;0.33;;;14.90;99.90;;;;;;4985803;28;20491;-71
2022/07/15 06:02:26;;;;;;;5.03;0.50;;;15.00;99.90;;;;;;4978480;28;20038;-72
2022/07/15 06:04:51;;;;;;;2.33;0.70;;;15.00;99.90;;;;;;4984715;28;20073;-71
2022/07/15 06:07:17;;;;;;;1.07;0.27;;;14.90;99.90;;;;;;4984100;28;20301;-72
2022/07/15 06:09:42;;;;;;;2.40;0.40;;;15.00;99.90;;;;;;4985754;28;20051;-71
2022/07/15 06:12:09;;;;;;;1.00;0.43;;;15.00;99.90;;;;;;4981204;28;20296;-72
2022/07/15 06:14:34;;;;;;;;;;;15.00;99.90;;;;;;4977023;28;20528;-71
2022/07/15 06:17:00;;;;;;;1.98;0.60;;;15.10;99.90;;;;;;4978695;28;19926;-71
2022/07/15 06:19:26;;;;;;;3.30;0.85;;;15.10;99.90;;;;;;4985406;28;20093;-71
2022/07/15 06:21:51;;;;;;;1.60;0.20;;;15.20;99.90;;;;;;4986321;28;20042;-71
2022/07/15 06:24:17;;;;;;;3.13;0.30;;;15.20;99.90;;;;;;4983573;28;20085;-71
2022/07/15 06:26:43;;;;;;;3.85;0.50;;;15.30;99.90;;;;;;4988203;28;20474;-71
2022/07/15 06:29:08;;;;;;;2.70;0.30;;;15.40;99.90;;;;;;4982036;28;20038;-71
2022/07/15 06:31:34;;;;;;;2.08;0.40;;;15.40;99.90;;;;;;4983182;28;20038;-71
2022/07/15 06:34:00;;;;;;;0.17;0.10;;;15.50;99.90;;;;;;4987273;28;22270;-71
2022/07/15 06:36:26;;;;;;;7.03;1.05;;;15.60;99.90;;;;;;4981584;28;20070;-71
2022/07/15 06:38:51;;;;;;;5.45;0.68;;;15.60;99.90;;;;;;4982630;28;20058;-71
2022/07/15 06:41:18;;;;;;;0.63;0.20;;;15.70;99.90;;;;;;4981763;28;20041;-70
2022/07/15 06:43:45;;;;;;;1.75;0.30;;;15.70;99.90;;;;;;4994858;28;20332;-71
2022/07/15 06:46:11;;;;;;;1.75;0.40;;;15.80;99.90;;;;;;4982917;28;20041;-70
2022/07/15 06:48:38;;;;;;;0.77;0.10;;;15.90;99.90;;;;;;4982772;28;20047;-71
2022/07/15 06:51:04;;;;;;;0.85;0.28;;;15.90;99.90;;;;;;4987106;28;20042;-71
2022/07/15 06:53:30;;;;;;;2.25;0.20;;;15.90;99.90;;;;;;4974623;28;20046;-71
2022/07/15 06:55:55;;;;;;;5.00;0.38;;;16.00;99.90;;;;;;4984019;28;20177;-71
2022/07/15 06:58:21;;;;;;;5.40;0.50;;;16.10;99.90;;;;;;4985741;28;20045;-70
2022/07/15 07:00:47;;;;;;;1.55;0.30;;;16.20;99.90;;;;;;4978969;28;20297;-70
2022/07/15 07:03:13;;;;;;;2.45;0.30;;;16.20;99.90;;;;;;4981511;28;20080;-71
2022/07/15 07:05:39;;;;;;;2.75;0.30;;;16.30;99.90;;;;;;4976990;28;20075;-70
2022/07/15 07:08:05;;;;;;;1.85;0.10;;;16.40;99.90;;;;;;4978005;28;20636;-71
2022/07/15 07:10:31;;;;;;;1.85;0.40;;;16.40;99.90;;;;;;4980010;28;20053;-71
2022/07/15 07:12:56;;;;;;;4.70;0.40;;;16.30;99.90;;;;;;4982433;28;21696;-71
2022/07/15 07:15:23;;;;;;;1.27;0.32;;;16.40;99.90;;;;;;4981469;28;20075;-70
2022/07/15 07:17:53;;;;;;;1.55;0.52;;;16.40;99.90;;;;;;4981741;28;20051;-71
2022/07/15 07:20:18;;;;;;;2.30;0.25;;;16.50;99.90;;;;;;4985905;28;20428;-71
2022/07/15 07:22:44;;;;;;;1.38;0.50;;;16.60;99.90;;;;;;4984832;28;20141;-71
2022/07/15 07:25:10;;;;;;;1.48;0.30;;;16.60;99.90;;;;;;4988267;28;20110;-71
2022/07/15 07:27:35;;;;;;;2.85;0.63;;;16.70;99.90;;;;;;4982570;28;20076;-71
2022/07/15 07:30:04;;;;;;;1.05;0.38;;;16.90;99.90;;;;;;4978787;28;20031;-71
2022/07/15 07:32:30;;;;;;;1.67;0.50;;;17.00;99.90;;;;;;4980935;28;20050;-71
2022/07/15 07:34:56;;;;;;;0.40;0.20;;;17.10;99.90;;;;;;4980687;28;20181;-70
2022/07/15 07:37:22;;;;;;;0.40;0.30;;;17.10;99.90;;;;;;4979749;28;20122;-72
2022/07/15 07:39:48;;;;;;;0.60;0.13;;;17.10;99.90;;;;;;4983973;28;22007;-72
2022/07/15 07:42:15;;;;;;;1.45;0.22;;;17.10;99.90;;;;;;4982747;28;20077;-72
2022/07/15 07:44:40;;;;;;;1.40;0.20;;;17.20;99.90;;;;;;4984621;28;20161;-72
2022/07/15 07:47:06;;;;;;;0.68;0.28;;;17.10;99.90;;;;;;4986673;28;20120;-71
2022/07/15 07:49:31;;;;;;;3.00;0.38;;;17.00;99.90;;;;;;4988317;28;20062;-71
2022/07/15 07:51:57;;;;;;;3.25;0.30;;;17.00;99.90;;;;;;4983197;28;20042;-73
2022/07/15 07:54:23;;;;;;;0.82;0.30;;;17.00;99.90;;;;;;4980769;28;20049;-71
2022/07/15 07:56:48;;;;;;;2.03;0.22;;;17.00;99.90;;;;;;4978540;28;20069;-71
2022/07/15 07:59:14;;;;;;;3.35;0.20;;;17.10;99.90;;;;;;4987978;28;20030;-71
2022/07/15 08:01:39;;;;;;;0.40;0.15;;;17.10;99.90;;;;;;4978926;28;20042;-71
2022/07/15 08:04:05;;;;;;;0.65;0.20;;;17.20;99.90;;;;;;4983016;28;20121;-71
2022/07/15 08:06:31;;;;;;;2.05;0.20;;;17.40;99.90;;;;;;4979407;28;20056;-71
2022/07/15 08:08:57;;;;;;;1.50;0.20;;;17.50;99.90;;;;;;4978034;28;20056;-71
2022/07/15 08:11:22;;;;;;;0.20;0.10;;;17.50;99.90;;;;;;4990895;28;20554;-71
2022/07/15 08:13:48;;;;;;;5.75;0.50;;;17.50;99.90;;;;;;4985524;28;20045;-72
2022/07/15 08:16:13;;;;;;;0.55;0.15;;;17.50;99.90;;;;;;4990487;28;20038;-71
2022/07/15 08:18:39;;;;;;;0.85;0.22;;;17.50;99.90;;;;;;4983888;28;20197;-71
2022/07/15 08:21:05;;;;;;;3.78;0.73;;;17.40;99.90;;;;;;4984914;28;20096;-72
2022/07/15 08:23:32;;;;;;;1.05;0.20;;;17.50;99.90;;;;;;4975740;28;20149;-71
2022/07/15 08:25:58;;;;;;;0.85;0.25;;;17.50;99.90;;;;;;4980209;28;20122;-71
2022/07/15 08:28:24;;;;;;;;;;;17.60;99.90;;;;;;4978560;28;20034;-71
2022/07/15 08:30:50;;;;;;;0.45;0.10;;;17.60;99.90;;;;;;4982633;28;19933;-75
2022/07/15 08:33:16;;;;;;;0.50;0.20;;;17.50;99.90;;;;;;4985221;28;20053;-71
2022/07/15 08:35:43;;;;;;;2.22;0.28;;;17.50;99.90;;;;;;4975667;28;20034;-70
2022/07/15 08:38:09;;;;;;;0.30;0.10;;;17.50;99.90;;;;;;4987036;28;20042;-70
2022/07/15 08:40:36;;;;;;;0.85;0.10;;;17.50;99.90;;;;;;4981958;28;20504;-70
2022/07/15 08:43:07;;;;;;;0.40;0.10;;;17.50;99.90;;;;;;4983989;28;20035;-71
2022/07/15 08:45:38;;;;;;;3.00;0.38;;;17.50;99.90;;;;;;4988395;28;20034;-71
2022/07/15 08:48:07;;;;;;;1.02;0.17;;;17.50;99.90;;;;;;4987597;28;20108;-71
2022/07/15 08:50:34;;;;;;;0.70;0.25;;;17.60;99.90;;;;;;4970072;28;20070;-71
2022/07/15 08:53:01;;;;;;;0.82;0.32;;;17.60;99.90;;;;;;4978097;28;20606;-70
2022/07/15 08:55:26;;;;;;;;;;;17.60;99.90;;;;;;4981650;28;20038;-70
2022/07/15 08:57:53;;;;;;;1.25;0.30;;;17.60;99.90;;;;;;4983105;28;20504;-70
2022/07/15 09:00:19;;;;;;;5.60;0.30;;;17.60;99.90;;;;;;4983700;28;20129;-70
2022/07/15 09:02:46;;;;;;;0.75;0.30;;;17.50;99.90;;;;;;4985661;28;20129;-73
2022/07/15 09:05:18;;;;;;;2.95;0.45;;;17.50;99.90;;;;;;4986465;28;20091;-72
2022/07/15 09:07:53;;;;;;;2.03;0.32;;;17.40;99.90;;;;;;4982071;28;20152;-71
2022/07/15 09:10:21;;;;;;;2.42;0.50;;;17.50;99.90;;;;;;4983120;28;20043;-72
2022/07/15 09:12:51;;;;;;;0.65;0.15;;;17.70;99.90;;;;;;4982999;28;20046;-74
2022/07/15 09:15:31;;;;;;;1.02;0.20;;;17.80;99.90;;;;;;4979444;28;20121;-73
2022/07/15 09:18:09;;;;;;;0.77;0.20;;;18.00;99.90;;;;;;4985382;28;20094;-72
2022/07/15 09:20:35;;;;;;;2.47;0.10;;;17.90;99.90;;;;;;4985980;28;20050;-74
2022/07/15 09:23:01;;;;;;;2.22;0.40;;;17.90;99.90;;;;;;4970476;28;20042;-71
2022/07/15 09:25:28;;;;;;;4.10;0.38;;;17.80;99.90;;;;;;4987546;28;20526;-72
2022/07/15 09:27:57;;;;;;;0.50;0.10;;;17.80;99.90;;;;;;4988548;28;20125;-70
2022/07/15 09:36:06;;;;;;;1.60;0.20;;;18.30;99.90;;;;;;4985474;28;20099;-71
2022/07/15 09:38:40;;;;;;;0.70;0.20;;;18.30;99.90;;;;;;4983937;28;20053;-73
2022/07/15 09:41:27;;;;;;;1.45;0.30;;;18.30;99.90;;;;;;4988774;28;20053;-71
2022/07/15 09:43:55;;;;;;;2.17;0.20;;;18.20;99.90;;;;;;4981875;28;20883;-71
2022/07/15 09:46:23;;;;;;;1.35;0.77;;;18.20;99.90;;;;;;4985561;28;20042;-71
2022/07/15 09:48:51;;;;;;;1.20;0.20;;;18.20;99.90;;;;;;4981318;28;20145;-71
2022/07/15 09:51:19;;;;;;;1.17;0.30;;;18.20;99.90;;;;;;4988697;28;20061;-72
2022/07/15 09:53:44;;;;;;;1.63;0.20;;;18.20;99.90;;;;;;4977847;28;20039;-71
2022/07/15 09:56:14;;;;;;;1.88;0.20;;;18.40;99.90;;;;;;4980547;28;20104;-72
2022/07/15 09:58:42;;;;;;;0.57;0.10;;;18.50;99.90;;;;;;4987878;28;20054;-71
2022/07/15 10:01:10;;;;;;;0.73;0.20;;;18.70;99.90;;;;;;4991001;28;20089;-71
2022/07/15 10:03:36;;;;;;;0.65;0.25;;;18.90;99.90;;;;;;4984059;28;20053;-71
2022/07/15 10:06:03;;;;;;;0.70;0.20;;;19.10;99.90;;;;;;4988590;28;20145;-71
2022/07/15 10:08:35;;;;;;;0.82;0.10;;;19.20;99.90;;;;;;4985881;28;20149;-71
2022/07/15 10:11:09;;;;;;;0.95;0.20;;;19.40;99.90;;;;;;4990402;28;20058;-71
2022/07/15 10:14:02;;;;;;;0.50;0.22;;;19.50;99.90;;;;;;4979090;28;20082;-72
2022/07/15 10:16:30;;;;;;;1.48;0.13;;;19.70;99.90;;;;;;4985232;28;20110;-71
2022/07/15 10:19:34;;;;;;;0.30;0.10;;;19.70;99.90;;;;;;4971892;28;20050;-71
2022/07/15 10:22:20;;;;;;;0.10;0.00;;;19.80;99.90;;;;;;4982586;28;20652;-71
2022/07/15 10:25:16;;;;;;;0.97;0.20;;;19.70;99.90;;;;;;4982568;28;20065;-71
2022/07/15 10:27:51;;;;;;;1.92;0.22;;;19.60;96.60;;;;;;4988495;28;20034;-71
2022/07/15 10:30:23;;;;;;;1.70;0.30;;;19.50;96.80;;;;;;4977917;28;20191;-71
2022/07/15 10:33:03;;;;;;;1.63;0.20;;;19.60;97.30;;;;;;4988134;28;20134;-71
2022/07/15 10:35:38;;;;;;;0.45;0.20;;;19.70;97.50;;;;;;4983079;28;20325;-71
2022/07/15 10:38:21;;;;;;;1.90;0.20;;;19.70;99.30;;;;;;4984061;28;20030;-71
2022/07/15 10:41:10;;;;;;;0.30;0.20;;;19.60;97.60;;;;;;4998974;28;20053;-71
2022/07/15 10:43:41;;;;;;;0.80;0.28;;;19.50;97.10;;;;;;4983539;28;20108;-71
2022/07/15 10:46:15;;;;;;;0.93;0.20;;;19.40;97.80;;;;;;4964170;28;20061;-71
2022/07/15 10:48:45;;;;;;;0.63;0.15;;;19.40;99.10;;;;;;4990399;28;20046;-71
2022/07/15 10:51:12;;;;;;;2.00;0.20;;;19.30;99.90;;;;;;4987519;28;20050;-71
2022/07/15 10:53:46;;;;;;;1.00;0.20;;;19.30;99.90;;;;;;4976464;28;20053;-71
2022/07/15 10:56:52;;;;;;;;;;;;;;;;;;;;;
2022/07/15 10:59:48;;;;;;;0.38;0.20;;;19.50;99.90;;;;;;5027098;28;20104;-88
2022/07/15 11:02:16;;;;;;;1.58;0.50;;;19.70;99.00;;;;;;5025410;28;20063;-84
2022/07/15 11:05:05;;;;;;;0.47;0.13;;;19.90;99.50;;;;;;5026002;28;20091;-84
2022/07/15 11:07:31;;;;;;;1.42;0.30;;;19.80;99.70;;;;;;5035365;28;20079;-84
2022/07/15 11:10:03;;;;;;;3.58;0.30;;;19.80;99.90;;;;;;5034868;28;20034;-85
2022/07/15 11:12:29;;;;;;;1.10;0.20;;;19.70;99.90;;;;;;5017201;28;20121;-83
2022/07/15 11:15:16;;;;;;;2.67;0.32;;;19.60;99.90;;;;;;5010079;28;20124;-83
2022/07/15 11:17:46;;;;;;;2.00;0.40;;;19.70;99.90;;;;;;5022861;28;20069;-83
2022/07/15 11:20:12;;;;;;;1.70;0.60;;;19.80;99.90;;;;;;5020569;28;20034;-86
2022/07/15 11:22:43;;;;;;;3.03;0.40;;;19.80;99.90;;;;;;5016499;28;20045;-83
2022/07/15 11:25:31;;;;;;;;;;;;;;;;;;;;;
2022/07/15 11:28:24;;;;;;;1.75;0.50;;;19.40;99.90;;;;;;5029990;28;20060;-87
2022/07/15 11:30:53;;;;;;;2.53;0.50;;;19.30;99.90;;;;;;5016948;28;20046;-83
2022/07/15 11:33:25;;;;;;;4.03;0.30;;;19.20;99.90;;;;;;5032373;28;20091;-84
2022/07/15 11:36:03;;;;;;;0.95;0.30;;;19.20;99.90;;;;;;5028644;28;20130;-83
2022/07/15 11:38:39;;;;;;;2.28;0.50;;;19.40;99.90;;;;;;5021621;28;20052;-84
2022/07/15 11:44:31;;;;;;;2.63;0.35;;;19.70;99.90;;;;;;5039123;28;20120;-83
2022/07/15 11:47:00;;;;;;;6.25;0.68;;;20.00;99.90;;;;;;5030352;28;20037;-84
2022/07/15 11:49:30;;;;;;;1.35;0.20;;;20.20;99.90;;;;;;5040501;28;20099;-84
2022/07/15 11:52:07;;;;;;;2.63;0.30;;;20.30;99.90;;;;;;5032682;28;20041;-87
2022/07/15 11:54:40;;;;;;;0.90;0.10;;;20.50;99.90;;;;;;5010512;28;20449;-86
2022/07/15 11:57:12;;;;;;;0.50;0.20;;;20.50;98.80;;;;;;5034566;28;20101;-84
2022/07/15 11:59:49;;;;;;;2.65;0.52;;;20.40;98.90;;;;;;5016447;28;20124;-83
2022/07/15 12:02:15;;;;;;;3.63;0.47;;;20.20;99.70;;;;;;5022066;28;20450;-84
2022/07/15 12:04:44;;;;;;;0.90;0.40;;;20.00;99.90;;;;;;5031468;28;20041;-84
2022/07/15 12:07:10;;;;;;;1.00;0.38;;;19.70;99.90;;;;;;5020167;28;20098;-85
2022/07/15 12:09:40;;;;;;;2.30;0.40;;;19.40;99.90;;;;;;5035726;28;20045;-83
2022/07/15 12:12:08;;;;;;;1.20;0.40;;;19.20;99.90;;;;;;5033839;28;20045;-83
2022/07/15 12:14:35;;;;;;;1.67;0.60;;;19.20;99.90;;;;;;5025809;28;20041;-83
2022/07/15 12:17:01;;;;;;;3.25;0.47;;;19.10;99.90;;;;;;5034185;28;20519;-84
2022/07/15 12:19:29;;;;;;;1.52;0.50;;;19.30;99.90;;;;;;5031978;28;20034;-83
2022/07/15 12:21:57;;;;;;;1.85;0.30;;;19.30;99.90;;;;;;5016960;28;20042;-84
2022/07/15 12:24:51;;;;;;;0.82;0.30;;;19.40;99.90;;;;;;5026578;28;20037;-85
2022/07/15 12:27:33;;;;;;;0.93;0.70;;;19.30;99.90;;;;;;5033087;28;20041;-83
2022/07/15 12:30:05;;;;;;;3.65;0.43;;;19.30;99.90;;;;;;5018600;28;20040;-83
2022/07/15 12:32:31;;;;;;;1.80;0.50;;;19.20;99.90;;;;;;5025224;28;20522;-82
2022/07/15 12:34:58;;;;;;;1.08;0.43;;;19.30;99.90;;;;;;5034868;28;20116;-83
2022/07/15 12:37:37;;;;;;;1.58;0.40;;;19.30;99.90;;;;;;5018091;28;20518;-85
2022/07/15 12:40:13;;;;;;;1.48;0.60;;;19.30;99.90;;;;;;5040761;28;20045;-84
2022/07/15 12:42:56;;;;;;;1.20;0.60;;;19.20;99.90;;;;;;5039562;28;20073;-82
2022/07/15 12:45:29;;;;;;;1.20;0.50;;;19.30;99.90;;;;;;5013927;28;20049;-85
2022/07/15 12:48:04;;;;;;;1.05;0.40;;;19.40;99.90;;;;;;5018970;28;20117;-84
2022/07/15 12:50:34;;;;;;;0.63;0.30;;;19.60;99.90;;;;;;5019968;28;20049;-84
2022/07/15 12:53:00;;;;;;;1.45;0.60;;;19.70;99.90;;;;;;5031465;28;20038;-88
2022/07/15 12:55:32;;;;;;;1.48;0.50;;;19.80;99.90;;;;;;5041657;28;20041;-84
2022/07/15 12:58:23;;;;;;;1.85;0.57;;;19.80;99.90;;;;;;5031254;28;20033;-84
2022/07/15 13:00:49;;;;;;;1.55;0.60;;;19.80;99.90;;;;;;5019116;28;20041;-82
2022/07/15 13:03:24;;;;;;;2.67;0.43;;;19.70;99.90;;;;;;5013230;28;20037;-83
2022/07/15 13:06:05;;;;;;;1.42;0.60;;;19.70;99.90;;;;;;5022064;28;20488;-84
2022/07/15 13:08:38;;;;;;;2.13;0.60;;;19.60;99.90;;;;;;5020367;28;20041;-84